sensor_id;sensor_type;location;lat;lon;timestamp;pressure;altitude;pressure_sealevel;temperature;humidity
51759;BME280;66684;47.568;18.734;2023-03-04T00:00:11;99602.78;;;-0.33;96.03
51759;BME280;66684;47.568;18.734;2023-03-04T00:02:37;99601.50;;;-0.28;96.17
51759;BME280;66684;47.568;18.734;2023-03-04T00:05:03;99606.19;;;-0.22;96.38
51759;BME280;66684;47.568;18.734;2023-03-04T00:07:29;99601.62;;;-0.16;94.87
51759;BME280;66684;47.568;18.734;2023-03-04T00:09:55;99595.00;;;-0.14;94.36
51759;BME280;66684;47.568;18.734;2023-03-04T00:12:21;99601.41;;;-0.19;94.38
51759;BME280;66684;47.568;18.734;2023-03-04T00:14:47;99605.53;;;-0.80;97.33
51759;BME280;66684;47.568;18.734;2023-03-04T00:17:13;99602.09;;;-0.91;98.98
51759;BME280;66684;47.568;18.734;2023-03-04T00:19:39;99590.31;;;-0.80;99.68
51759;BME280;66684;47.568;18.734;2023-03-04T00:22:05;99593.88;;;-0.78;100.00
51759;BME280;66684;47.568;18.734;2023-03-04T00:24:31;99596.56;;;-0.57;98.96
51759;BME280;66684;47.568;18.734;2023-03-04T00:26:57;99594.75;;;-0.58;98.45
51759;BME280;66684;47.568;18.734;2023-03-04T00:29:23;99594.16;;;-0.55;97.88
51759;BME280;66684;47.568;18.734;2023-03-04T00:31:49;99589.06;;;-0.55;97.80
51759;BME280;66684;47.568;18.734;2023-03-04T00:34:15;99588.19;;;-0.56;97.05
51759;BME280;66684;47.568;18.734;2023-03-04T00:36:41;99597.31;;;-0.47;96.94
51759;BME280;66684;47.568;18.734;2023-03-04T00:39:10;99591.34;;;-0.58;98.92
51759;BME280;66684;47.568;18.734;2023-03-04T00:41:37;99594.81;;;-0.37;97.48
51759;BME280;66684;47.568;18.734;2023-03-04T00:44:03;99599.38;;;-0.43;96.85
51759;BME280;66684;47.568;18.734;2023-03-04T00:46:29;99589.97;;;-0.55;96.86
51759;BME280;66684;47.568;18.734;2023-03-04T00:48:55;99594.81;;;-0.37;95.19
51759;BME280;66684;47.568;18.734;2023-03-04T00:51:21;99592.00;;;-0.30;95.71
51759;BME280;66684;47.568;18.734;2023-03-04T00:53:47;99597.19;;;-0.18;95.00
51759;BME280;66684;47.568;18.734;2023-03-04T00:56:13;99588.44;;;-0.32;94.66
51759;BME280;66684;47.568;18.734;2023-03-04T00:58:39;99583.25;;;-0.44;95.70
51759;BME280;66684;47.568;18.734;2023-03-04T01:01:06;99582.09;;;-0.27;95.03
51759;BME280;66684;47.568;18.734;2023-03-04T01:03:32;99581.59;;;-0.23;95.17
51759;BME280;66684;47.568;18.734;2023-03-04T01:05:59;99579.81;;;-0.24;94.94
51759;BME280;66684;47.568;18.734;2023-03-04T01:08:25;99578.12;;;-0.13;94.33
51759;BME280;66684;47.568;18.734;2023-03-04T01:10:51;99573.19;;;-0.12;94.20
51759;BME280;66684;47.568;18.734;2023-03-04T01:13:17;99574.97;;;-0.11;93.37
51759;BME280;66684;47.568;18.734;2023-03-04T01:15:43;99577.53;;;-0.31;93.45
51759;BME280;66684;47.568;18.734;2023-03-04T01:18:09;99574.47;;;-0.27;93.72
51759;BME280;66684;47.568;18.734;2023-03-04T01:20:35;99572.69;;;-0.18;93.34
51759;BME280;66684;47.568;18.734;2023-03-04T01:23:01;99574.47;;;-0.17;92.18
51759;BME280;66684;47.568;18.734;2023-03-04T01:25:27;99571.16;;;-0.16;92.15
51759;BME280;66684;47.568;18.734;2023-03-04T01:27:53;99572.19;;;-0.24;93.32
51759;BME280;66684;47.568;18.734;2023-03-04T01:30:19;99572.69;;;-0.18;91.92
51759;BME280;66684;47.568;18.734;2023-03-04T01:32:44;99568.13;;;-0.32;91.49
51759;BME280;66684;47.568;18.734;2023-03-04T01:35:10;99563.41;;;-0.89;94.38
51759;BME280;66684;47.568;18.734;2023-03-04T01:37:36;99564.50;;;-1.16;95.72
51759;BME280;66684;47.568;18.734;2023-03-04T01:40:03;99561.34;;;-1.03;95.41
51759;BME280;66684;47.568;18.734;2023-03-04T01:42:32;99557.16;;;-1.02;97.39
51759;BME280;66684;47.568;18.734;2023-03-04T01:44:59;99558.72;;;-0.84;97.05
51759;BME280;66684;47.568;18.734;2023-03-04T01:47:28;99556.22;;;-0.74;96.49
51759;BME280;66684;47.568;18.734;2023-03-04T01:49:56;99553.66;;;-0.64;94.01
51759;BME280;66684;47.568;18.734;2023-03-04T01:52:23;99552.88;;;-0.83;93.54
51759;BME280;66684;47.568;18.734;2023-03-04T01:54:49;99553.91;;;-0.81;93.07
51759;BME280;66684;47.568;18.734;2023-03-04T01:57:20;99545.03;;;-0.86;91.21
51759;BME280;66684;47.568;18.734;2023-03-04T02:02:46;99541.94;;;-1.02;94.09
51759;BME280;66684;47.568;18.734;2023-03-04T02:05:13;99535.37;;;-1.00;93.37
51759;BME280;66684;47.568;18.734;2023-03-04T02:07:39;99539.69;;;-0.89;92.61
51759;BME280;66684;47.568;18.734;2023-03-04T02:10:05;99539.44;;;-0.92;92.05
51759;BME280;66684;47.568;18.734;2023-03-04T02:12:31;99537.28;;;-0.98;92.15
51759;BME280;66684;47.568;18.734;2023-03-04T02:14:57;99536.63;;;-1.05;92.97
51759;BME280;66684;47.568;18.734;2023-03-04T02:17:24;99537.00;;;-1.11;92.97
51759;BME280;66684;47.568;18.734;2023-03-04T02:26:12;99535.84;;;-1.15;92.36
51759;BME280;66684;47.568;18.734;2023-03-04T02:28:39;99533.66;;;-1.30;93.82
51759;BME280;66684;47.568;18.734;2023-03-04T02:31:05;99532.50;;;-1.34;93.11
51759;BME280;66684;47.568;18.734;2023-03-04T02:33:31;99526.56;;;-1.64;94.52
51759;BME280;66684;47.568;18.734;2023-03-04T02:35:58;99521.13;;;-1.68;95.09
51759;BME280;66684;47.568;18.734;2023-03-04T02:38:24;99517.97;;;-1.66;95.19
51759;BME280;66684;47.568;18.734;2023-03-04T02:40:53;99514.78;;;-1.73;96.04
51759;BME280;66684;47.568;18.734;2023-03-04T02:43:20;99508.28;;;-1.80;96.06
51759;BME280;66684;47.568;18.734;2023-03-04T02:45:48;99505.56;;;-1.92;96.67
51759;BME280;66684;47.568;18.734;2023-03-04T02:48:20;99509.44;;;-2.05;98.05
51759;BME280;66684;47.568;18.734;2023-03-04T02:50:49;99507.03;;;-2.04;97.70
51759;BME280;66684;47.568;18.734;2023-03-04T02:53:16;99500.84;;;-2.07;98.32
51759;BME280;66684;47.568;18.734;2023-03-04T02:55:42;99503.38;;;-1.97;97.77
51759;BME280;66684;47.568;18.734;2023-03-04T02:58:09;99503.38;;;-1.97;97.36
51759;BME280;66684;47.568;18.734;2023-03-04T03:00:35;99504.91;;;-1.99;97.86
51759;BME280;66684;47.568;18.734;2023-03-04T03:03:01;99508.69;;;-2.04;97.73
51759;BME280;66684;47.568;18.734;2023-03-04T03:05:30;99500.31;;;-2.03;97.37
51759;BME280;66684;47.568;18.734;2023-03-04T03:07:56;99499.44;;;-2.04;97.79
51759;BME280;66684;47.568;18.734;2023-03-04T03:10:22;99503.13;;;-2.00;97.80
51759;BME280;66684;47.568;18.734;2023-03-04T03:12:48;99496.56;;;-1.98;98.04
51759;BME280;66684;47.568;18.734;2023-03-04T03:15:15;99489.72;;;-1.99;97.30
51759;BME280;66684;47.568;18.734;2023-03-04T03:17:41;99478.34;;;-1.94;96.99
51759;BME280;66684;47.568;18.734;2023-03-04T03:20:08;99485.78;;;-1.96;96.69
51759;BME280;66684;47.568;18.734;2023-03-04T03:22:35;99481.47;;;-2.07;97.13
51759;BME280;66684;47.568;18.734;2023-03-04T03:25:01;99478.00;;;-2.18;97.07
51759;BME280;66684;47.568;18.734;2023-03-04T03:27:27;99481.34;;;-2.46;98.72
51759;BME280;66684;47.568;18.734;2023-03-04T03:29:53;99480.53;;;-2.36;99.21
51759;BME280;66684;47.568;18.734;2023-03-04T03:32:19;99482.84;;;-2.29;99.19
51759;BME280;66684;47.568;18.734;2023-03-04T03:34:45;99482.50;;;-2.24;99.45
51759;BME280;66684;47.568;18.734;2023-03-04T03:37:11;99480.03;;;-2.13;97.55
51759;BME280;66684;47.568;18.734;2023-03-04T03:39:37;99482.06;;;-2.09;97.25
51759;BME280;66684;47.568;18.734;2023-03-04T03:42:03;99483.03;;;-2.18;97.77
51759;BME280;66684;47.568;18.734;2023-03-04T03:44:29;99490.91;;;-2.14;97.50
51759;BME280;66684;47.568;18.734;2023-03-04T03:46:55;99483.13;;;-2.07;96.01
51759;BME280;66684;47.568;18.734;2023-03-04T03:49:21;99488.91;;;-2.08;95.62
51759;BME280;66684;47.568;18.734;2023-03-04T03:51:47;99482.94;;;-2.38;97.41
51759;BME280;66684;47.568;18.734;2023-03-04T03:54:13;99484.63;;;-2.66;99.39
51759;BME280;66684;47.568;18.734;2023-03-04T03:56:39;99487.59;;;-2.61;99.57
51759;BME280;66684;47.568;18.734;2023-03-04T03:59:05;99484.75;;;-2.83;100.00
51759;BME280;66684;47.568;18.734;2023-03-04T04:01:31;99476.13;;;-3.04;100.00
51759;BME280;66684;47.568;18.734;2023-03-04T04:03:58;99475.25;;;-2.86;100.00
51759;BME280;66684;47.568;18.734;2023-03-04T04:06:25;99475.19;;;-2.77;100.00
51759;BME280;66684;47.568;18.734;2023-03-04T04:08:51;99477.00;;;-2.57;100.00
51759;BME280;66684;47.568;18.734;2023-03-04T04:11:17;99471.19;;;-2.56;99.54
51759;BME280;66684;47.568;18.734;2023-03-04T04:13:43;99475.28;;;-2.48;99.38
51759;BME280;66684;47.568;18.734;2023-03-04T04:16:10;99472.75;;;-2.48;99.22
51759;BME280;66684;47.568;18.734;2023-03-04T04:18:36;99477.19;;;-2.46;99.01
51759;BME280;66684;47.568;18.734;2023-03-04T04:21:02;99480.63;;;-2.45;98.40
51759;BME280;66684;47.568;18.734;2023-03-04T04:23:29;99477.06;;;-2.47;98.26
51759;BME280;66684;47.568;18.734;2023-03-04T04:25:56;99484.97;;;-2.72;99.38
51759;BME280;66684;47.568;18.734;2023-03-04T04:28:22;99474.94;;;-2.61;100.00
51759;BME280;66684;47.568;18.734;2023-03-04T04:30:48;99478.00;;;-2.55;99.57
51759;BME280;66684;47.568;18.734;2023-03-04T04:33:15;99478.62;;;-2.58;99.55
51759;BME280;66684;47.568;18.734;2023-03-04T04:35:40;99473.22;;;-2.52;99.96
51759;BME280;66684;47.568;18.734;2023-03-04T04:38:08;99473.97;;;-2.53;99.72
51759;BME280;66684;47.568;18.734;2023-03-04T04:40:34;99466.25;;;-2.55;100.00
51759;BME280;66684;47.568;18.734;2023-03-04T04:43:00;99468.88;;;-2.63;100.00
51759;BME280;66684;47.568;18.734;2023-03-04T04:45:26;99469.97;;;-2.51;100.00
51759;BME280;66684;47.568;18.734;2023-03-04T04:47:53;99462.84;;;-2.55;100.00
51759;BME280;66684;47.568;18.734;2023-03-04T04:50:20;99469.66;;;-2.54;100.00
51759;BME280;66684;47.568;18.734;2023-03-04T04:52:46;99465.44;;;-2.45;100.00
51759;BME280;66684;47.568;18.734;2023-03-04T04:55:11;99462.41;;;-2.41;100.00
51759;BME280;66684;47.568;18.734;2023-03-04T04:57:37;99460.72;;;-2.32;99.65
51759;BME280;66684;47.568;18.734;2023-03-04T05:00:05;99463.78;;;-2.26;98.82
51759;BME280;66684;47.568;18.734;2023-03-04T05:02:31;99459.31;;;-2.28;99.02
51759;BME280;66684;47.568;18.734;2023-03-04T05:05:02;99467.03;;;-2.27;98.55
51759;BME280;66684;47.568;18.734;2023-03-04T05:07:28;99461.44;;;-2.33;99.72
51759;BME280;66684;47.568;18.734;2023-03-04T05:09:54;99461.66;;;-2.40;99.40
51759;BME280;66684;47.568;18.734;2023-03-04T05:12:20;99459.84;;;-2.51;100.00
51759;BME280;66684;47.568;18.734;2023-03-04T05:14:46;99464.34;;;-2.57;100.00
51759;BME280;66684;47.568;18.734;2023-03-04T05:17:12;99454.78;;;-2.51;100.00
51759;BME280;66684;47.568;18.734;2023-03-04T05:19:38;99458.03;;;-2.52;100.00
51759;BME280;66684;47.568;18.734;2023-03-04T05:22:04;99452.09;;;-2.53;100.00
51759;BME280;66684;47.568;18.734;2023-03-04T05:24:30;99454.06;;;-2.40;100.00
51759;BME280;66684;47.568;18.734;2023-03-04T05:26:56;99457.47;;;-2.39;100.00
51759;BME280;66684;47.568;18.734;2023-03-04T05:29:22;99453.75;;;-2.53;100.00
51759;BME280;66684;47.568;18.734;2023-03-04T05:31:48;99452.84;;;-2.54;100.00
51759;BME280;66684;47.568;18.734;2023-03-04T05:34:14;99452.81;;;-2.64;100.00
51759;BME280;66684;47.568;18.734;2023-03-04T05:36:39;99452.66;;;-2.65;100.00
51759;BME280;66684;47.568;18.734;2023-03-04T05:39:05;99447.25;;;-2.60;100.00
51759;BME280;66684;47.568;18.734;2023-03-04T05:41:31;99447.88;;;-2.43;100.00
51759;BME280;66684;47.568;18.734;2023-03-04T05:43:57;99446.25;;;-2.33;100.00
51759;BME280;66684;47.568;18.734;2023-03-04T05:46:23;99447.19;;;-2.32;100.00
51759;BME280;66684;47.568;18.734;2023-03-04T05:48:51;99445.53;;;-2.32;100.00
51759;BME280;66684;47.568;18.734;2023-03-04T05:51:18;99449.50;;;-2.44;100.00
51759;BME280;66684;47.568;18.734;2023-03-04T05:53:44;99443.72;;;-2.33;100.00
51759;BME280;66684;47.568;18.734;2023-03-04T05:56:13;99449.28;;;-2.37;100.00
51759;BME280;66684;47.568;18.734;2023-03-04T05:58:40;99451.09;;;-2.07;100.00
51759;BME280;66684;47.568;18.734;2023-03-04T06:01:06;99460.03;;;-1.81;100.00
51759;BME280;66684;47.568;18.734;2023-03-04T06:03:33;99458.50;;;-1.40;100.00
51759;BME280;66684;47.568;18.734;2023-03-04T06:05:59;99455.97;;;-1.40;100.00
51759;BME280;66684;47.568;18.734;2023-03-04T06:08:25;99460.56;;;-1.16;100.00
51759;BME280;66684;47.568;18.734;2023-03-04T06:10:54;99463.47;;;-1.01;100.00
51759;BME280;66684;47.568;18.734;2023-03-04T06:13:20;99458.16;;;-0.73;100.00
51759;BME280;66684;47.568;18.734;2023-03-04T06:15:46;99465.84;;;-0.51;100.00
51759;BME280;66684;47.568;18.734;2023-03-04T06:18:12;99464.75;;;-0.13;100.00
51759;BME280;66684;47.568;18.734;2023-03-04T06:20:38;99472.63;;;-0.20;100.00
51759;BME280;66684;47.568;18.734;2023-03-04T06:23:04;99476.94;;;-0.09;100.00
51759;BME280;66684;47.568;18.734;2023-03-04T06:25:30;99477.22;;;0.16;100.00
51759;BME280;66684;47.568;18.734;2023-03-04T06:27:56;99487.38;;;0.16;100.00
51759;BME280;66684;47.568;18.734;2023-03-04T06:30:22;99488.28;;;0.17;100.00
51759;BME280;66684;47.568;18.734;2023-03-04T06:32:48;99490.50;;;0.34;100.00
51759;BME280;66684;47.568;18.734;2023-03-04T06:35:15;99481.16;;;0.45;100.00
51759;BME280;66684;47.568;18.734;2023-03-04T06:37:41;99478.47;;;0.43;100.00
51759;BME280;66684;47.568;18.734;2023-03-04T06:40:09;99483.22;;;0.39;100.00
51759;BME280;66684;47.568;18.734;2023-03-04T06:42:36;99482.72;;;0.65;100.00
51759;BME280;66684;47.568;18.734;2023-03-04T06:45:03;99484.47;;;0.66;100.00
51759;BME280;66684;47.568;18.734;2023-03-04T06:47:29;99480.44;;;0.79;100.00
51759;BME280;66684;47.568;18.734;2023-03-04T06:49:55;99475.72;;;0.84;100.00
51759;BME280;66684;47.568;18.734;2023-03-04T06:52:21;99481.28;;;0.90;100.00
51759;BME280;66684;47.568;18.734;2023-03-04T06:54:47;99482.37;;;0.94;100.00
51759;BME280;66684;47.568;18.734;2023-03-04T06:57:13;99482.66;;;1.08;100.00
51759;BME280;66684;47.568;18.734;2023-03-04T06:59:39;99481.81;;;1.20;100.00
51759;BME280;66684;47.568;18.734;2023-03-04T07:02:05;99482.72;;;1.32;100.00
51759;BME280;66684;47.568;18.734;2023-03-04T07:04:31;99483.63;;;1.44;100.00
51759;BME280;66684;47.568;18.734;2023-03-04T07:06:57;99486.84;;;1.53;100.00
51759;BME280;66684;47.568;18.734;2023-03-04T07:09:23;99476.34;;;1.60;100.00
51759;BME280;66684;47.568;18.734;2023-03-04T07:11:49;99480.34;;;1.69;100.00
51759;BME280;66684;47.568;18.734;2023-03-04T07:14:14;99477.00;;;1.70;100.00
51759;BME280;66684;47.568;18.734;2023-03-04T07:16:40;99485.25;;;1.89;99.95
51759;BME280;66684;47.568;18.734;2023-03-04T07:19:06;99487.44;;;1.96;99.89
51759;BME280;66684;47.568;18.734;2023-03-04T07:21:32;99481.22;;;2.04;99.30
51759;BME280;66684;47.568;18.734;2023-03-04T07:23:58;99480.53;;;2.19;97.75
51759;BME280;66684;47.568;18.734;2023-03-04T07:26:24;99480.34;;;2.27;98.01
51759;BME280;66684;47.568;18.734;2023-03-04T07:28:50;99485.41;;;2.39;97.96
51759;BME280;66684;47.568;18.734;2023-03-04T07:31:21;99480.75;;;2.33;97.78
51759;BME280;66684;47.568;18.734;2023-03-04T07:33:48;99483.59;;;2.50;96.09
51759;BME280;66684;47.568;18.734;2023-03-04T07:36:14;99483.00;;;2.65;96.13
51759;BME280;66684;47.568;18.734;2023-03-04T07:38:45;99484.50;;;2.75;94.14
51759;BME280;66684;47.568;18.734;2023-03-04T07:41:11;99485.69;;;2.92;92.74
51759;BME280;66684;47.568;18.734;2023-03-04T07:43:37;99486.28;;;3.01;91.78
51759;BME280;66684;47.568;18.734;2023-03-04T07:46:03;99481.13;;;3.13;92.13
51759;BME280;66684;47.568;18.734;2023-03-04T07:48:29;99485.31;;;3.24;90.26
51759;BME280;66684;47.568;18.734;2023-03-04T07:51:13;99485.72;;;3.30;89.39
51759;BME280;66684;47.568;18.734;2023-03-04T07:53:40;99482.31;;;3.43;88.31
51759;BME280;66684;47.568;18.734;2023-03-04T07:56:07;99484.47;;;3.50;88.98
51759;BME280;66684;47.568;18.734;2023-03-04T07:58:33;99481.16;;;3.64;85.88
51759;BME280;66684;47.568;18.734;2023-03-04T08:00:59;99479.59;;;3.53;85.81
51759;BME280;66684;47.568;18.734;2023-03-04T08:03:27;99479.41;;;3.76;86.30
51759;BME280;66684;47.568;18.734;2023-03-04T08:05:54;99479.72;;;3.81;83.67
51759;BME280;66684;47.568;18.734;2023-03-04T08:08:20;99480.00;;;3.72;83.14
51759;BME280;66684;47.568;18.734;2023-03-04T08:10:46;99481.22;;;3.91;83.44
51759;BME280;66684;47.568;18.734;2023-03-04T08:13:12;99484.56;;;3.90;81.07
51759;BME280;66684;47.568;18.734;2023-03-04T08:15:42;99480.81;;;3.98;79.68
51759;BME280;66684;47.568;18.734;2023-03-04T08:18:08;99481.78;;;4.00;80.09
51759;BME280;66684;47.568;18.734;2023-03-04T08:20:34;99479.44;;;4.03;78.50
51759;BME280;66684;47.568;18.734;2023-03-04T08:23:00;99470.50;;;4.10;78.22
51759;BME280;66684;47.568;18.734;2023-03-04T08:25:26;99463.09;;;4.14;76.77
51759;BME280;66684;47.568;18.734;2023-03-04T08:27:52;99479.03;;;4.23;75.69
51759;BME280;66684;47.568;18.734;2023-03-04T08:30:18;99473.34;;;4.27;74.94
51759;BME280;66684;47.568;18.734;2023-03-04T08:32:43;99470.94;;;4.30;73.47
51759;BME280;66684;47.568;18.734;2023-03-04T08:35:09;99472.16;;;4.22;74.32
51759;BME280;66684;47.568;18.734;2023-03-04T08:37:35;99481.75;;;4.40;73.97
51759;BME280;66684;47.568;18.734;2023-03-04T08:40:01;99471.34;;;4.37;73.35
51759;BME280;66684;47.568;18.734;2023-03-04T08:42:27;99468.37;;;4.44;72.35
51759;BME280;66684;47.568;18.734;2023-03-04T08:44:53;99473.97;;;4.38;72.12
51759;BME280;66684;47.568;18.734;2023-03-04T08:47:19;99474.44;;;4.59;72.18
51759;BME280;66684;47.568;18.734;2023-03-04T08:49:45;99469.72;;;4.65;70.84
51759;BME280;66684;47.568;18.734;2023-03-04T08:52:11;99457.91;;;4.82;70.47
51759;BME280;66684;47.568;18.734;2023-03-04T08:54:36;99454.91;;;4.74;70.38
51759;BME280;66684;47.568;18.734;2023-03-04T08:57:02;99456.25;;;4.82;69.39
51759;BME280;66684;47.568;18.734;2023-03-04T08:59:29;99444.69;;;4.89;69.44
51759;BME280;66684;47.568;18.734;2023-03-04T09:01:54;99452.50;;;4.91;69.01
51759;BME280;66684;47.568;18.734;2023-03-04T09:04:20;99444.91;;;5.07;69.31
51759;BME280;66684;47.568;18.734;2023-03-04T09:06:46;99447.59;;;5.23;68.54
51759;BME280;66684;47.568;18.734;2023-03-04T09:09:12;99439.47;;;5.30;70.23
51759;BME280;66684;47.568;18.734;2023-03-04T09:11:38;99430.56;;;5.38;68.82
51759;BME280;66684;47.568;18.734;2023-03-04T09:14:04;99435.25;;;5.60;67.09
51759;BME280;66684;47.568;18.734;2023-03-04T09:16:30;99434.16;;;5.57;67.95
51759;BME280;66684;47.568;18.734;2023-03-04T09:18:56;99427.09;;;5.53;67.75
51759;BME280;66684;47.568;18.734;2023-03-04T09:21:21;99431.09;;;5.62;69.37
51759;BME280;66684;47.568;18.734;2023-03-04T09:23:47;99434.34;;;5.45;68.47
51759;BME280;66684;47.568;18.734;2023-03-04T09:26:21;99429.25;;;5.60;67.89
51759;BME280;66684;47.568;18.734;2023-03-04T09:28:49;99434.34;;;5.75;68.17
51759;BME280;66684;47.568;18.734;2023-03-04T09:31:16;99429.03;;;5.86;68.72
51759;BME280;66684;47.568;18.734;2023-03-04T09:33:42;99428.31;;;6.04;67.63
51759;BME280;66684;47.568;18.734;2023-03-04T09:36:12;99422.94;;;6.30;66.34
51759;BME280;66684;47.568;18.734;2023-03-04T09:38:39;99427.53;;;6.36;65.42
51759;BME280;66684;47.568;18.734;2023-03-04T09:41:12;99412.03;;;6.51;63.71
51759;BME280;66684;47.568;18.734;2023-03-04T09:43:40;99425.97;;;6.23;66.27
51759;BME280;66684;47.568;18.734;2023-03-04T09:46:13;99425.62;;;6.17;64.57
51759;BME280;66684;47.568;18.734;2023-03-04T09:48:47;99413.53;;;6.31;65.89
51759;BME280;66684;47.568;18.734;2023-03-04T09:54:06;99402.84;;;6.54;64.54
51759;BME280;66684;47.568;18.734;2023-03-04T09:56:36;99397.31;;;6.79;64.77
51759;BME280;66684;47.568;18.734;2023-03-04T09:59:23;99396.06;;;6.89;63.52
51759;BME280;66684;47.568;18.734;2023-03-04T10:01:59;99390.38;;;6.94;64.37
51759;BME280;66684;47.568;18.734;2023-03-04T10:04:33;99390.38;;;6.94;62.54
51759;BME280;66684;47.568;18.734;2023-03-04T10:07:01;99388.25;;;7.03;65.48
51759;BME280;66684;47.568;18.734;2023-03-04T10:12:22;99385.69;;;7.03;64.55
51759;BME280;66684;47.568;18.734;2023-03-04T10:14:58;99396.91;;;7.22;63.30
51759;BME280;66684;47.568;18.734;2023-03-04T10:17:36;99383.84;;;7.35;63.02
51759;BME280;66684;47.568;18.734;2023-03-04T10:20:25;99374.13;;;7.46;63.26
51759;BME280;66684;47.568;18.734;2023-03-04T10:22:57;99385.47;;;7.33;61.67
51759;BME280;66684;47.568;18.734;2023-03-04T10:25:32;99382.38;;;7.22;62.88
51759;BME280;66684;47.568;18.734;2023-03-04T10:28:04;99369.75;;;7.27;63.42
51759;BME280;66684;47.568;18.734;2023-03-04T10:33:14;99375.28;;;7.52;61.81
51759;BME280;66684;47.568;18.734;2023-03-04T10:35:44;99367.56;;;7.52;61.72
51759;BME280;66684;47.568;18.734;2023-03-04T10:38:12;99361.13;;;7.61;62.27
51759;BME280;66684;47.568;18.734;2023-03-04T10:40:40;99367.22;;;7.63;61.55
51759;BME280;66684;47.568;18.734;2023-03-04T10:43:19;99366.25;;;7.78;60.43
51759;BME280;66684;47.568;18.734;2023-03-04T10:45:46;99345.66;;;7.96;59.90
51759;BME280;66684;47.568;18.734;2023-03-04T10:48:25;99355.66;;;7.90;59.22
51759;BME280;66684;47.568;18.734;2023-03-04T10:50:52;99337.69;;;8.09;56.51
51759;BME280;66684;47.568;18.734;2023-03-04T10:53:39;99350.09;;;7.99;57.78
51759;BME280;66684;47.568;18.734;2023-03-04T10:56:39;99337.28;;;8.00;58.00
51759;BME280;66684;47.568;18.734;2023-03-04T10:59:42;99332.28;;;8.23;57.08
51759;BME280;66684;47.568;18.734;2023-03-04T11:07:23;99334.09;;;8.24;53.86
51759;BME280;66684;47.568;18.734;2023-03-04T11:09:49;99319.31;;;8.20;55.37
51759;BME280;66684;47.568;18.734;2023-03-04T11:12:18;99314.56;;;8.29;55.59
51759;BME280;66684;47.568;18.734;2023-03-04T11:14:46;99316.09;;;8.43;55.38
51759;BME280;66684;47.568;18.734;2023-03-04T11:17:25;99312.06;;;8.30;54.41
51759;BME280;66684;47.568;18.734;2023-03-04T11:20:03;99298.75;;;8.39;55.21
51759;BME280;66684;47.568;18.734;2023-03-04T11:22:30;99299.91;;;8.46;53.30
51759;BME280;66684;47.568;18.734;2023-03-04T11:25:09;99303.34;;;8.46;54.28
51759;BME280;66684;47.568;18.734;2023-03-04T11:27:45;99295.94;;;8.54;55.63
51759;BME280;66684;47.568;18.734;2023-03-04T11:32:50;99297.38;;;8.47;53.40
51759;BME280;66684;47.568;18.734;2023-03-04T11:35:25;99281.91;;;8.28;54.33
51759;BME280;66684;47.568;18.734;2023-03-04T11:40:59;99284.13;;;8.38;55.38
51759;BME280;66684;47.568;18.734;2023-03-04T11:43:35;99287.03;;;8.46;57.06
51759;BME280;66684;47.568;18.734;2023-03-04T11:51:56;99281.34;;;8.93;55.74
51759;BME280;66684;47.568;18.734;2023-03-04T11:54:33;99273.28;;;9.06;55.26
51759;BME280;66684;47.568;18.734;2023-03-04T11:57:15;99269.06;;;9.08;53.76
51759;BME280;66684;47.568;18.734;2023-03-04T12:02:20;99283.59;;;9.06;53.27
51759;BME280;66684;47.568;18.734;2023-03-04T12:07:51;99255.84;;;9.22;53.49
51759;BME280;66684;47.568;18.734;2023-03-04T12:10:23;99251.38;;;9.38;53.35
51759;BME280;66684;47.568;18.734;2023-03-04T12:18:09;99238.19;;;9.31;52.60
51759;BME280;66684;47.568;18.734;2023-03-04T12:33:31;99216.28;;;9.87;52.07
51759;BME280;66684;47.568;18.734;2023-03-04T12:39:14;99217.09;;;10.10;51.61
51759;BME280;66684;47.568;18.734;2023-03-04T12:44:19;99204.00;;;10.27;50.33
51759;BME280;66684;47.568;18.734;2023-03-04T12:55:09;99189.69;;;10.13;47.95
51759;BME280;66684;47.568;18.734;2023-03-04T12:57:36;99179.50;;;10.42;47.31
51759;BME280;66684;47.568;18.734;2023-03-04T13:05:29;99168.69;;;10.52;43.57
51759;BME280;66684;47.568;18.734;2023-03-04T13:08:12;99169.25;;;10.43;43.17
51759;BME280;66684;47.568;18.734;2023-03-04T13:10:44;99167.59;;;10.45;42.55
51759;BME280;66684;47.568;18.734;2023-03-04T13:13:54;99161.19;;;10.60;43.25
51759;BME280;66684;47.568;18.734;2023-03-04T13:16:40;99149.03;;;10.83;42.51
51759;BME280;66684;47.568;18.734;2023-03-04T13:22:27;99148.41;;;10.64;43.41
51759;BME280;66684;47.568;18.734;2023-03-04T13:24:55;99131.44;;;10.72;43.23
51759;BME280;66684;47.568;18.734;2023-03-04T14:04:12;99096.66;;;10.36;39.54
51759;BME280;66684;47.568;18.734;2023-03-04T14:06:43;99104.00;;;10.23;39.61
51759;BME280;66684;47.568;18.734;2023-03-04T14:09:14;99098.84;;;10.23;40.24
51759;BME280;66684;47.568;18.734;2023-03-04T14:11:41;99089.84;;;10.12;41.12
51759;BME280;66684;47.568;18.734;2023-03-04T14:14:13;99105.22;;;10.09;39.31
51759;BME280;66684;47.568;18.734;2023-03-04T14:16:53;99102.13;;;9.94;40.12
51759;BME280;66684;47.568;18.734;2023-03-04T14:19:30;99097.09;;;9.98;40.68
51759;BME280;66684;47.568;18.734;2023-03-04T14:21:58;99091.25;;;9.79;41.47
51759;BME280;66684;47.568;18.734;2023-03-04T14:24:25;99088.03;;;9.86;41.14
51759;BME280;66684;47.568;18.734;2023-03-04T14:27:23;99094.16;;;9.88;40.88
51759;BME280;66684;47.568;18.734;2023-03-04T14:29:57;99100.63;;;9.77;40.30
51759;BME280;66684;47.568;18.734;2023-03-04T14:32:23;99100.28;;;9.67;41.14
51759;BME280;66684;47.568;18.734;2023-03-04T14:34:55;99084.81;;;9.67;41.06
51759;BME280;66684;47.568;18.734;2023-03-04T14:37:25;99086.03;;;9.77;41.43
51759;BME280;66684;47.568;18.734;2023-03-04T14:39:55;99090.78;;;9.90;41.61
51759;BME280;66684;47.568;18.734;2023-03-04T14:42:24;99093.37;;;9.90;41.17
51759;BME280;66684;47.568;18.734;2023-03-04T14:44:53;99091.38;;;9.82;40.45
51759;BME280;66684;47.568;18.734;2023-03-04T14:49:52;99088.78;;;9.82;40.61
51759;BME280;66684;47.568;18.734;2023-03-04T14:55:26;99098.81;;;9.50;40.95
51759;BME280;66684;47.568;18.734;2023-03-04T14:58:04;99098.59;;;9.44;42.73
51759;BME280;66684;47.568;18.734;2023-03-04T15:00:33;99107.72;;;9.36;43.60